Time;durP1;ratioP1;P1;durP2;ratioP2;P2;SDS_P1;SDS_P2;PMS_P1;PMS_P2;Temp;Humidity;BMP_temperature;BMP_pressure;BME280_temperature;BME280_humidity;BME280_pressure;Samples;Min_cycle;Max_cycle;Signal;HPM_P1;HPM_P2
2023/08/03 00:00:20;;;;;;;6.95;1.40;;;;;;;21.01;82.06;98962.13;5013116;28;20068;-45
2023/08/03 00:02:46;;;;;;;8.00;1.60;;;;;;;21.14;81.72;98961.41;5012648;28;20117;-42
2023/08/03 00:05:13;;;;;;;6.35;1.30;;;;;;;20.86;82.43;98978.91;5013289;28;20121;-45
2023/08/03 00:07:38;;;;;;;8.15;1.40;;;;;;;20.48;83.92;98969.72;5013153;28;20040;-44
2023/08/03 00:10:04;;;;;;;4.10;1.20;;;;;;;20.69;83.36;98975.56;5013305;28;20033;-44
2023/08/03 00:12:29;;;;;;;10.90;1.63;;;;;;;20.70;83.12;98975.47;5012260;28;20034;-47
2023/08/03 00:14:55;;;;;;;9.52;1.40;;;;;;;20.82;82.77;98985.34;5013303;28;20037;-45
2023/08/03 00:17:20;;;;;;;8.25;1.30;;;;;;;20.85;82.40;98985.19;5013789;28;20057;-41
2023/08/03 00:19:46;;;;;;;7.88;1.30;;;;;;;20.99;82.41;98987.84;5013017;28;20037;-44
2023/08/03 00:22:11;;;;;;;4.78;1.20;;;;;;;20.72;83.04;98994.78;5013198;28;20038;-44
2023/08/03 00:24:37;;;;;;;7.85;1.50;;;;;;;20.81;82.86;98996.88;5012407;28;20054;-44
2023/08/03 00:27:02;;;;;;;8.48;1.50;;;;;;;20.69;83.69;98994.94;5013851;28;20044;-45
2023/08/03 00:29:27;;;;;;;7.40;1.60;;;;;;;20.88;82.96;99003.53;5014048;28;20033;-44
2023/08/03 00:31:53;;;;;;;7.40;1.52;;;;;;;20.78;83.59;99006.81;5013493;28;20029;-45
2023/08/03 00:34:18;;;;;;;7.18;1.70;;;;;;;20.83;83.45;99004.75;5013381;28;20556;-43
2023/08/03 00:36:44;;;;;;;5.13;1.60;;;;;;;20.73;83.58;99016.81;5012203;28;20045;-42
2023/08/03 00:39:10;;;;;;;8.50;1.63;;;;;;;21.08;81.90;99014.75;5012790;28;20120;-45
2023/08/03 00:41:35;;;;;;;8.00;1.67;;;;;;;20.99;81.70;99014.34;5011428;28;20455;-45
2023/08/03 00:44:01;;;;;;;7.60;1.60;;;;;;;20.65;82.76;99017.25;5012211;28;20037;-45
2023/08/03 00:46:26;;;;;;;8.27;1.67;;;;;;;20.87;82.06;99028.31;5012359;28;20399;-43
2023/08/03 00:48:51;;;;;;;6.22;1.73;;;;;;;20.85;82.46;99029.34;5010475;28;20400;-45
2023/08/03 00:51:17;;;;;;;6.30;1.88;;;;;;;20.76;82.46;99020.13;5012309;28;20030;-50
2023/08/03 00:53:45;;;;;;;8.88;1.90;;;;;;;21.00;81.93;99023.16;5011642;28;20132;-45
2023/08/03 00:56:11;;;;;;;7.22;2.15;;;;;;;21.06;81.47;99028.94;5012142;28;20644;-45
2023/08/03 00:58:39;;;;;;;8.45;2.00;;;;;;;20.94;81.80;99032.31;5011878;28;20049;-43
2023/08/03 01:01:05;;;;;;;8.85;2.22;;;;;;;20.99;81.40;99037.34;5011764;28;20131;-43
2023/08/03 01:03:30;;;;;;;9.43;2.10;;;;;;;20.93;81.10;99043.00;5010928;28;20041;-44
2023/08/03 01:05:55;;;;;;;9.05;2.30;;;;;;;20.93;81.51;99043.84;5011858;28;20403;-46
2023/08/03 01:08:21;;;;;;;9.13;2.38;;;;;;;20.95;81.45;99044.63;5011826;28;20084;-45
2023/08/03 01:10:46;;;;;;;10.35;2.65;;;;;;;20.95;81.27;99049.94;5011147;28;20030;-44
2023/08/03 01:13:12;;;;;;;11.40;2.50;;;;;;;20.70;82.53;99046.09;5011537;28;20026;-42
2023/08/03 01:15:37;;;;;;;8.82;2.53;;;;;;;20.79;81.79;99043.81;5011373;28;20104;-43
2023/08/03 01:18:03;;;;;;;9.52;2.40;;;;;;;20.94;81.09;99050.00;5011805;28;20026;-45
2023/08/03 01:20:29;;;;;;;8.90;2.60;;;;;;;20.83;81.38;99042.69;5011118;28;20038;-46
2023/08/03 01:22:54;;;;;;;6.43;2.45;;;;;;;20.90;80.67;99052.00;5011145;28;20120;-44
2023/08/03 01:25:19;;;;;;;8.25;2.65;;;;;;;21.05;80.60;99061.69;5011448;28;20037;-45
2023/08/03 01:27:47;;;;;;;8.25;2.63;;;;;;;20.79;81.55;99049.09;5011169;28;20034;-48
2023/08/03 01:30:12;;;;;;;8.93;2.38;;;;;;;20.77;81.51;99058.06;5011440;28;20076;-44
2023/08/03 01:32:38;;;;;;;7.93;2.60;;;;;;;20.81;81.66;99055.16;5010724;28;20447;-43
2023/08/03 01:35:06;;;;;;;7.97;2.60;;;;;;;20.92;80.88;99057.22;5011507;28;20436;-44
2023/08/03 01:37:34;;;;;;;6.65;2.30;;;;;;;21.05;80.49;99063.47;5011178;28;20454;-48
2023/08/03 01:39:59;;;;;;;5.70;2.40;;;;;;;20.94;80.46;99068.53;5011303;28;20083;-45
2023/08/03 01:42:25;;;;;;;8.45;2.42;;;;;;;21.03;79.76;99062.72;5010859;28;20038;-43
2023/08/03 01:44:50;;;;;;;6.40;2.28;;;;;;;21.03;79.93;99070.69;5010636;28;20157;-44
2023/08/03 01:47:16;;;;;;;6.30;2.13;;;;;;;21.00;79.66;99058.44;5011321;28;20087;-48
2023/08/03 01:49:41;;;;;;;8.15;2.40;;;;;;;20.99;79.86;99069.13;5010800;28;20500;-42
2023/08/03 01:52:07;;;;;;;9.90;2.30;;;;;;;21.17;79.16;99072.53;5010764;28;20034;-44
2023/08/03 01:54:32;;;;;;;8.93;2.40;;;;;;;21.24;78.94;99068.59;5010258;28;20034;-47
2023/08/03 01:56:57;;;;;;;6.32;1.90;;;;;;;21.29;79.05;99064.72;5011261;28;20172;-42
2023/08/03 01:59:23;;;;;;;7.93;2.00;;;;;;;21.09;79.79;99072.97;5011041;28;20058;-44
2023/08/03 02:01:48;;;;;;;7.30;2.00;;;;;;;21.11;79.80;99070.22;5009961;28;20567;-44
2023/08/03 02:04:16;;;;;;;6.13;1.80;;;;;;;20.88;79.62;99075.06;5010662;28;20384;-45
2023/08/03 02:06:47;;;;;;;6.07;1.63;;;;;;;20.81;80.35;99075.47;5010764;28;20115;-42
2023/08/03 02:09:12;;;;;;;6.97;1.80;;;;;;;20.85;79.91;99074.38;5010963;28;20080;-42
2023/08/03 02:11:38;;;;;;;4.90;1.30;;;;;;;20.86;80.07;99066.31;5009709;28;20054;-46
2023/08/03 02:14:03;;;;;;;5.22;1.30;;;;;;;20.89;79.43;99079.41;5010503;28;20404;-46
2023/08/03 02:16:28;;;;;;;3.58;1.48;;;;;;;20.64;80.11;99077.28;5010232;28;20567;-42
2023/08/03 02:18:54;;;;;;;5.65;1.60;;;;;;;20.57;80.64;99080.38;5010751;28;20030;-42
2023/08/03 02:21:19;;;;;;;5.40;1.50;;;;;;;20.61;80.97;99085.41;5009379;28;20022;-47
2023/08/03 02:23:44;;;;;;;4.13;1.30;;;;;;;20.89;80.00;99087.38;5009691;28;20038;-43
2023/08/03 02:26:10;;;;;;;3.22;1.17;;;;;;;20.86;80.23;99084.88;5010929;28;20030;-44
2023/08/03 02:28:35;;;;;;;3.38;1.30;;;;;;;20.76;80.48;99083.69;5010158;28;20042;-43
2023/08/03 02:31:01;;;;;;;5.63;1.27;;;;;;;20.88;79.90;99083.00;5010356;28;20033;-44
2023/08/03 02:33:26;;;;;;;3.45;1.20;;;;;;;20.67;80.50;99089.53;5010008;28;20029;-45
2023/08/03 02:35:51;;;;;;;3.88;1.10;;;;;;;20.78;79.55;99087.13;5009908;28;20030;-43
2023/08/03 02:38:17;;;;;;;2.80;1.10;;;;;;;20.88;78.97;99093.59;5010832;28;20026;-44
2023/08/03 02:40:42;;;;;;;3.97;1.13;;;;;;;20.94;78.29;99101.19;5009814;28;20121;-47
2023/08/03 02:43:07;;;;;;;3.80;1.10;;;;;;;20.72;79.58;99100.72;5009917;28;20045;-47
2023/08/03 02:45:33;;;;;;;5.22;1.20;;;;;;;20.86;79.53;99105.25;5010108;28;20084;-44
2023/08/03 02:47:58;;;;;;;4.13;1.15;;;;;;;20.83;80.15;99111.53;5011586;28;20065;-43
2023/08/03 02:50:23;;;;;;;2.88;1.08;;;;;;;20.94;79.84;99113.59;5010051;28;20405;-44
2023/08/03 02:52:49;;;;;;;4.20;1.27;;;;;;;20.96;80.06;99104.63;5009237;28;20408;-47
2023/08/03 02:55:16;;;;;;;4.00;1.20;;;;;;;20.82;80.28;99108.97;5009942;28;20041;-44
2023/08/03 02:57:41;;;;;;;6.72;1.30;;;;;;;20.67;81.38;99110.72;5009641;28;20041;-44
2023/08/03 03:00:07;;;;;;;6.72;1.42;;;;;;;20.81;80.81;99118.72;5009831;28;20042;-43
2023/08/03 03:02:33;;;;;;;5.57;1.50;;;;;;;20.65;81.06;99120.53;5009241;28;20404;-43
2023/08/03 03:04:58;;;;;;;4.18;1.35;;;;;;;20.61;81.89;99125.13;5009378;28;20111;-43
2023/08/03 03:07:23;;;;;;;4.18;1.30;;;;;;;20.70;82.02;99133.50;5009006;28;20073;-47
2023/08/03 03:09:48;;;;;;;4.80;1.40;;;;;;;20.77;81.15;99130.44;5009466;28;20045;-42
2023/08/03 03:12:14;;;;;;;8.88;1.90;;;;;;;20.11;83.53;99134.94;5009532;28;20037;-46
2023/08/03 03:14:39;;;;;;;8.52;1.95;;;;;;;20.46;82.28;99144.50;5009341;28;20409;-42
2023/08/03 03:17:05;;;;;;;5.95;1.98;;;;;;;20.54;81.97;99152.03;5010227;28;20500;-46
2023/08/03 03:19:30;;;;;;;9.38;1.77;;;;;;;20.53;81.85;99152.97;5009565;28;20037;-45
2023/08/03 03:21:55;;;;;;;8.07;2.05;;;;;;;20.52;82.04;99154.75;5009522;28;20129;-44
2023/08/03 03:24:21;;;;;;;7.15;1.60;;;;;;;20.67;81.11;99149.56;5009620;28;20121;-43
2023/08/03 03:26:46;;;;;;;9.30;1.52;;;;;;;20.63;80.28;99162.09;5009008;28;20404;-44
2023/08/03 03:29:12;;;;;;;7.72;1.33;;;;;;;20.70;80.05;99163.47;5009741;28;20400;-45
2023/08/03 03:31:37;;;;;;;10.18;1.42;;;;;;;20.35;81.13;99165.41;5008819;28;20041;-45
2023/08/03 03:34:02;;;;;;;7.68;1.63;;;;;;;20.55;80.43;99167.81;5011184;28;20030;-43
2023/08/03 03:36:28;;;;;;;6.57;1.40;;;;;;;20.72;80.17;99168.72;5013344;28;20065;-42
2023/08/03 03:38:53;;;;;;;5.78;1.23;;;;;;;20.45;80.78;99179.84;5013585;28;20161;-46
2023/08/03 03:41:19;;;;;;;5.93;1.35;;;;;;;20.37;81.14;99178.56;5013415;28;20088;-45
2023/08/03 03:43:45;;;;;;;5.05;1.02;;;;;;;20.54;80.66;99184.66;5012412;28;20050;-46
2023/08/03 03:46:10;;;;;;;7.75;1.52;;;;;;;20.29;81.47;99172.78;5013777;28;20107;-42
2023/08/03 03:48:36;;;;;;;5.90;1.30;;;;;;;20.57;80.89;99175.69;5013310;28;20447;-44
2023/08/03 03:51:01;;;;;;;8.10;1.35;;;;;;;20.73;80.46;99183.66;5013820;28;20057;-43
2023/08/03 03:53:26;;;;;;;9.65;1.45;;;;;;;20.81;80.27;99173.47;5013618;28;20431;-44
2023/08/03 03:55:51;;;;;;;7.45;1.05;;;;;;;20.83;80.17;99180.41;5013258;28;20080;-45
2023/08/03 03:58:17;;;;;;;5.47;1.80;;;;;;;20.79;80.10;99194.78;5013415;28;20251;-42
2023/08/03 04:00:43;;;;;;;6.13;1.60;;;;;;;20.91;80.19;99194.09;5012654;28;20049;-45
2023/08/03 04:03:08;;;;;;;6.93;1.67;;;;;;;20.47;82.29;99207.09;5012493;28;20065;-49
2023/08/03 04:05:35;;;;;;;6.85;1.60;;;;;;;20.56;81.96;99206.59;5012520;28;20527;-43
2023/08/03 04:08:01;;;;;;;7.22;1.60;;;;;;;20.67;80.97;99218.41;5013088;28;20646;-44
2023/08/03 04:10:26;;;;;;;11.40;2.20;;;;;;;20.52;82.09;99218.28;5012987;28;20037;-46
2023/08/03 04:12:51;;;;;;;16.30;2.50;;;;;;;20.50;82.57;99214.00;5012141;28;20034;-43
2023/08/03 04:15:16;;;;;;;18.13;2.53;;;;;;;20.37;82.79;99221.75;5012981;28;20026;-47
2023/08/03 04:17:45;;;;;;;15.32;2.63;;;;;;;20.48;82.57;99229.13;5012500;28;20041;-45
2023/08/03 04:20:11;;;;;;;16.02;2.85;;;;;;;20.35;82.88;99230.72;5012849;28;20555;-43
2023/08/03 04:22:36;;;;;;;13.00;2.65;;;;;;;20.38;82.15;99238.47;5011660;28;20065;-43
2023/08/03 04:25:02;;;;;;;12.27;2.53;;;;;;;20.41;81.90;99239.19;5012464;28;20497;-43
2023/08/03 04:27:27;;;;;;;13.77;2.60;;;;;;;20.51;81.26;99240.41;5012624;28;20172;-44
2023/08/03 04:29:52;;;;;;;16.30;3.00;;;;;;;20.42;81.14;99246.22;5011834;28;20030;-43
2023/08/03 04:32:17;;;;;;;13.52;2.67;;;;;;;20.18;81.42;99250.09;5012340;28;20034;-44
2023/08/03 04:34:43;;;;;;;16.02;2.72;;;;;;;20.06;82.46;99250.72;5011951;28;20041;-42
2023/08/03 04:37:08;;;;;;;11.32;2.42;;;;;;;20.46;80.89;99260.97;5012545;28;20037;-43
2023/08/03 04:39:33;;;;;;;13.30;2.38;;;;;;;20.34;81.12;99271.34;5011937;28;20030;-45
2023/08/03 04:41:59;;;;;;;7.95;1.88;;;;;;;20.17;81.51;99259.81;5011933;28;20038;-46
2023/08/03 04:44:24;;;;;;;10.85;1.63;;;;;;;20.03;82.45;99275.53;5010317;28;20042;-47
2023/08/03 04:46:49;;;;;;;9.38;1.58;;;;;;;20.19;81.92;99260.56;5012039;28;20041;-43
2023/08/03 04:49:15;;;;;;;10.75;1.85;;;;;;;19.94;83.50;99276.00;5012553;28;20034;-44
2023/08/03 04:51:40;;;;;;;11.00;1.83;;;;;;;20.03;83.03;99270.25;5011228;28;20496;-44
2023/08/03 04:54:05;;;;;;;9.38;1.73;;;;;;;20.09;82.93;99271.72;5012210;28;20073;-44
2023/08/03 04:56:31;;;;;;;10.23;1.70;;;;;;;20.23;82.13;99267.44;5011766;28;20042;-46
2023/08/03 04:58:56;;;;;;;8.23;1.50;;;;;;;20.30;81.77;99273.28;5012247;28;20034;-43
2023/08/03 05:01:21;;;;;;;10.48;1.67;;;;;;;20.55;80.70;99284.31;5012112;28;20050;-45
2023/08/03 05:03:46;;;;;;;9.80;1.88;;;;;;;20.22;82.46;99280.75;5011062;28;20034;-42
2023/08/03 05:06:12;;;;;;;10.40;2.00;;;;;;;20.05;82.95;99284.25;5012066;28;20500;-46
2023/08/03 05:08:37;;;;;;;9.10;1.90;;;;;;;20.15;81.67;99280.19;5011747;28;20045;-49
2023/08/03 05:11:02;;;;;;;8.15;1.73;;;;;;;20.26;81.86;99277.00;5012305;28;20400;-46
2023/08/03 05:13:28;;;;;;;13.40;2.30;;;;;;;20.03;82.03;99282.59;5011103;28;20489;-43
2023/08/03 05:15:53;;;;;;;9.00;1.85;;;;;;;19.87;83.27;99279.88;5012077;28;20382;-47
2023/08/03 05:18:18;;;;;;;9.25;2.10;;;;;;;20.18;82.80;99281.84;5011825;28;20049;-48
2023/08/03 05:20:44;;;;;;;11.48;2.00;;;;;;;20.44;81.75;99289.31;5011201;28;20046;-48
2023/08/03 05:23:11;;;;;;;9.60;1.70;;;;;;;20.33;82.32;99286.38;5011864;28;20038;-43
2023/08/03 05:25:37;;;;;;;14.05;1.90;;;;;;;19.97;82.90;99289.06;5011398;28;20123;-44
2023/08/03 05:28:02;;;;;;;12.38;1.83;;;;;;;20.18;82.31;99289.78;5011764;28;20054;-48
2023/08/03 05:30:28;;;;;;;8.88;1.65;;;;;;;20.54;81.49;99292.34;5011068;28;20044;-47
2023/08/03 05:32:54;;;;;;;8.48;1.60;;;;;;;20.60;81.29;99294.69;5010898;28;20058;-44
2023/08/03 05:35:19;;;;;;;9.23;1.65;;;;;;;20.62;80.33;99296.28;5011360;28;20030;-45
2023/08/03 05:37:45;;;;;;;10.75;1.80;;;;;;;20.08;82.80;99293.81;5010983;28;20039;-49
2023/08/03 05:40:11;;;;;;;9.77;1.63;;;;;;;20.31;82.11;99290.00;5011572;28;20571;-43
2023/08/03 05:42:39;;;;;;;9.88;2.10;;;;;;;20.69;81.12;99295.97;5010416;28;20164;-47
2023/08/03 05:45:10;;;;;;;7.97;1.60;;;;;;;20.36;82.47;99301.25;5011198;28;20049;-47
2023/08/03 05:47:38;;;;;;;10.23;1.95;;;;;;;20.39;83.36;99301.06;5010967;28;20117;-45
2023/08/03 05:50:13;;;;;;;9.35;1.77;;;;;;;20.62;82.06;99306.03;5011022;28;20412;-47
2023/08/03 05:52:38;;;;;;;9.02;2.15;;;;;;;20.78;81.83;99306.94;5010177;28;20037;-44
2023/08/03 05:55:04;;;;;;;11.77;1.90;;;;;;;20.74;81.99;99310.69;5011095;28;20026;-45
2023/08/03 05:57:30;;;;;;;11.02;2.10;;;;;;;20.64;82.33;99317.41;5009730;28;20040;-43
2023/08/03 05:59:55;;;;;;;13.02;2.45;;;;;;;20.52;82.83;99315.41;5010659;28;20053;-43
2023/08/03 06:02:35;;;;;;;13.20;2.40;;;;;;;20.26;84.42;99325.50;5010400;28;20034;-45
2023/08/03 06:05:01;;;;;;;11.68;2.70;;;;;;;20.47;83.40;99325.38;5010375;28;20042;-46
2023/08/03 06:07:26;;;;;;;12.95;2.70;;;;;;;20.82;82.98;99336.75;5010841;28;20100;-47
2023/08/03 06:09:52;;;;;;;13.20;2.50;;;;;;;20.73;83.08;99339.91;5010357;28;20571;-44
2023/08/03 06:12:18;;;;;;;13.68;2.58;;;;;;;20.98;81.78;99341.16;5010323;28;20116;-44
2023/08/03 06:14:43;;;;;;;12.00;2.45;;;;;;;20.92;82.67;99338.00;5010253;28;20080;-45
2023/08/03 06:17:10;;;;;;;11.93;2.20;;;;;;;20.68;84.11;99353.38;5010586;28;20038;-49
2023/08/03 06:19:36;;;;;;;13.07;2.30;;;;;;;20.73;83.69;99367.25;5010188;28;20034;-44
2023/08/03 06:22:12;;;;;;;15.20;2.20;;;;;;;20.74;83.95;99366.28;5009942;28;20030;-43
2023/08/03 06:24:37;;;;;;;14.65;2.70;;;;;;;20.56;83.73;99380.47;5009906;28;20034;-43
2023/08/03 06:27:03;;;;;;;13.32;2.35;;;;;;;20.39;84.54;99377.84;5010533;28;20112;-46
2023/08/03 06:29:28;;;;;;;15.43;2.70;;;;;;;20.20;85.38;99401.69;5010143;28;20034;-43
2023/08/03 06:31:54;;;;;;;11.45;2.65;;;;;;;20.48;84.79;99394.13;5009956;28;20480;-44
2023/08/03 06:34:19;;;;;;;12.18;2.70;;;;;;;20.40;85.06;99403.38;5010281;28;20037;-49
2023/08/03 06:36:45;;;;;;;17.27;2.83;;;;;;;20.65;83.66;99409.16;5009845;28;20133;-45
2023/08/03 06:39:10;;;;;;;13.38;2.88;;;;;;;20.75;84.15;99417.47;5010262;28;20038;-43
2023/08/03 06:41:35;;;;;;;13.23;2.78;;;;;;;20.32;85.56;99432.88;5009158;28;20046;-43
2023/08/03 06:44:01;;;;;;;9.93;2.40;;;;;;;20.61;83.79;99432.25;5010166;28;20741;-44
2023/08/03 06:46:27;;;;;;;11.57;2.67;;;;;;;20.51;85.24;99435.47;5010221;28;20069;-44
2023/08/03 06:48:52;;;;;;;10.27;2.28;;;;;;;20.75;84.76;99447.47;5009939;28;20050;-47
2023/08/03 06:51:18;;;;;;;12.20;2.47;;;;;;;20.77;83.99;99458.84;5009947;28;20056;-44
2023/08/03 06:53:44;;;;;;;9.35;1.95;;;;;;;20.81;83.14;99471.00;5009015;28;20084;-44
2023/08/03 06:56:09;;;;;;;10.75;2.10;;;;;;;20.82;83.22;99474.50;5009960;28;20056;-46
2023/08/03 06:58:34;;;;;;;9.20;1.98;;;;;;;20.82;83.63;99485.09;5009707;28;20048;-46
2023/08/03 07:01:00;;;;;;;8.27;2.00;;;;;;;20.98;82.59;99488.69;5008206;28;20070;-43
2023/08/03 07:03:25;;;;;;;8.98;1.80;;;;;;;20.97;82.00;99503.75;5009322;28;20448;-44
2023/08/03 07:05:51;;;;;;;6.30;1.73;;;;;;;20.74;82.65;99514.59;5009434;28;20108;-46
2023/08/03 07:08:16;;;;;;;7.47;1.83;;;;;;;20.47;83.23;99519.50;5009942;28;20034;-44
2023/08/03 07:10:42;;;;;;;4.97;1.60;;;;;;;20.92;82.31;99534.06;5009240;28;20511;-44
2023/08/03 07:13:07;;;;;;;8.45;1.80;;;;;;;20.96;82.17;99530.31;5008964;28;20092;-48
2023/08/03 07:15:36;;;;;;;8.95;1.55;;;;;;;21.25;81.37;99548.25;5009299;28;20034;-39
2023/08/03 07:18:05;;;;;;;8.73;1.77;;;;;;;21.35;80.08;99546.84;5009850;28;20029;-46
2023/08/03 07:20:31;;;;;;;4.00;1.52;;;;;;;21.30;79.55;99555.97;5009297;28;20033;-45
2023/08/03 07:22:56;;;;;;;6.93;1.67;;;;;;;21.63;79.19;99561.31;5009283;28;20511;-45
2023/08/03 07:25:22;;;;;;;4.65;1.30;;;;;;;21.41;79.31;99570.38;5009681;28;20061;-44
2023/08/03 07:27:48;;;;;;;7.28;1.70;;;;;;;21.30;79.43;99583.34;5009326;28;20117;-46
2023/08/03 07:30:13;;;;;;;7.30;1.40;;;;;;;21.20;79.64;99582.09;5009769;28;20572;-45
2023/08/03 07:32:38;;;;;;;5.60;1.70;;;;;;;21.51;79.37;99589.34;5008713;28;20519;-45
2023/08/03 07:35:04;;;;;;;6.65;1.55;;;;;;;21.17;79.53;99603.44;5024605;28;20034;-46
2023/08/03 07:37:29;;;;;;;5.85;1.92;;;;;;;21.14;80.06;99611.53;5009028;28;20038;-44
2023/08/03 07:39:55;;;;;;;5.68;1.67;;;;;;;21.29;79.38;99610.78;5009520;28;20030;-48
2023/08/03 07:42:20;;;;;;;7.22;2.03;;;;;;;21.35;78.87;99623.72;5009224;28;20116;-50
2023/08/03 07:44:45;;;;;;;7.72;1.80;;;;;;;21.27;79.08;99630.38;5008687;28;20045;-45
2023/08/03 07:47:11;;;;;;;8.98;1.90;;;;;;;21.03;79.40;99641.22;5009646;28;20030;-47
2023/08/03 07:49:36;;;;;;;4.50;1.83;;;;;;;21.16;78.38;99643.31;5008874;28;20058;-44
2023/08/03 07:52:01;;;;;;;6.55;2.30;;;;;;;21.41;77.31;99655.22;5009023;28;20465;-46
2023/08/03 07:54:27;;;;;;;4.85;1.92;;;;;;;21.52;76.56;99657.38;5008259;28;20473;-45
2023/08/03 07:56:52;;;;;;;6.30;1.85;;;;;;;22.21;76.13;99665.25;5007823;28;20037;-45
2023/08/03 07:59:17;;;;;;;5.43;1.60;;;;;;;21.96;75.03;99665.69;5010160;28;20044;-45
2023/08/03 08:01:45;;;;;;;4.18;1.50;;;;;;;22.28;74.71;99669.31;5010529;28;20048;-43
2023/08/03 08:04:11;;;;;;;8.10;1.90;;;;;;;22.65;73.13;99678.78;5010044;28;20443;-46
2023/08/03 08:06:37;;;;;;;6.00;1.50;;;;;;;23.10;71.31;99683.38;5009298;28;20038;-43
2023/08/03 08:09:04;;;;;;;5.95;1.73;;;;;;;22.40;72.84;99686.38;5009510;28;20143;-43
2023/08/03 08:11:29;;;;;;;7.55;1.90;;;;;;;22.63;72.07;99691.28;5008874;28;20034;-41
2023/08/03 08:13:59;;;;;;;6.88;1.90;;;;;;;22.92;71.88;99700.38;5009239;28;20034;-43
2023/08/03 08:16:25;;;;;;;5.50;1.77;;;;;;;22.81;73.09;99710.75;5009380;28;20646;-44
2023/08/03 08:18:50;;;;;;;3.75;1.63;;;;;;;22.78;72.44;99709.09;5008905;28;20054;-50
2023/08/03 08:21:15;;;;;;;7.38;2.10;;;;;;;22.63;73.10;99724.03;5012937;28;20109;-44
2023/08/03 08:23:41;;;;;;;7.97;2.08;;;;;;;23.15;73.17;99723.84;5011920;28;20537;-45
2023/08/03 08:26:10;;;;;;;7.32;1.90;;;;;;;23.69;68.69;99737.63;5012664;28;20033;-44
2023/08/03 08:28:35;;;;;;;5.72;1.92;;;;;;;23.75;68.82;99734.59;5012416;28;20042;-45
2023/08/03 08:31:00;;;;;;;5.15;1.75;;;;;;;23.89;67.11;99741.78;5012480;28;20099;-47
2023/08/03 08:33:26;;;;;;;8.20;1.90;;;;;;;23.99;68.79;99745.59;5011625;28;20041;-42
2023/08/03 08:35:51;;;;;;;5.70;2.00;;;;;;;24.35;68.45;99746.06;5012139;28;20162;-44
2023/08/03 08:38:16;;;;;;;4.45;1.67;;;;;;;23.96;67.58;99751.13;5012622;28;20549;-46
2023/08/03 08:40:44;;;;;;;6.25;1.73;;;;;;;23.48;68.41;99763.69;5011944;28;20040;-44
2023/08/03 08:43:09;;;;;;;5.65;1.75;;;;;;;23.54;69.79;99767.78;5012003;28;20034;-47
2023/08/03 08:45:36;;;;;;;4.15;1.60;;;;;;;22.95;70.38;99777.25;5011725;28;20148;-45
2023/08/03 08:48:02;;;;;;;9.60;2.45;;;;;;;22.58;75.46;99791.63;5012172;28;20056;-48
2023/08/03 08:50:28;;;;;;;6.38;2.08;;;;;;;22.57;75.55;99784.59;5010917;28;20501;-44
2023/08/03 08:52:55;;;;;;;5.20;1.90;;;;;;;22.29;75.62;99789.66;5011234;28;20100;-46
2023/08/03 08:55:24;;;;;;;5.95;1.70;;;;;;;22.15;76.88;99799.19;5012081;28;20501;-44
2023/08/03 08:57:50;;;;;;;7.20;2.00;;;;;;;21.85;77.36;99803.34;5011892;28;20042;-46
2023/08/03 09:00:16;;;;;;;6.20;1.77;;;;;;;21.77;78.49;99811.69;5012237;28;20125;-44
2023/08/03 09:02:41;;;;;;;10.07;2.45;;;;;;;21.44;80.07;99816.84;5011773;28;20463;-43
2023/08/03 09:05:15;;;;;;;10.30;2.50;;;;;;;22.35;79.64;99818.53;5012559;28;20030;-43
2023/08/03 09:07:41;;;;;;;8.65;2.15;;;;;;;22.99;77.33;99813.38;5012015;28;20336;-45
2023/08/03 09:10:07;;;;;;;12.95;2.38;;;;;;;23.88;76.63;99818.13;5012169;28;20164;-46
2023/08/03 09:12:32;;;;;;;12.45;2.38;;;;;;;23.69;74.27;99828.09;5011324;28;20073;-42
2023/08/03 09:14:58;;;;;;;10.90;2.55;;;;;;;23.18;75.54;99832.69;5011999;28;20033;-45
2023/08/03 09:17:24;;;;;;;10.65;2.60;;;;;;;23.11;76.56;99838.44;5012176;28;20044;-47
2023/08/03 09:19:51;;;;;;;10.48;2.60;;;;;;;23.50;74.84;99843.38;5011682;28;20048;-45
2023/08/03 09:22:23;;;;;;;8.90;2.45;;;;;;;22.48;76.97;99847.06;5011441;28;20036;-43
2023/08/03 09:25:08;;;;;;;7.47;2.08;;;;;;;23.20;74.74;99861.84;5011166;28;20140;-43
2023/08/03 09:27:34;;;;;;;6.00;1.88;;;;;;;22.95;74.67;99878.25;5010423;28;20659;-46
2023/08/03 09:30:04;;;;;;;7.10;1.50;;;;;;;22.52;74.30;99876.97;5012412;28;20034;-49
2023/08/03 09:32:34;;;;;;;8.52;1.33;;;;;;;22.57;74.92;99883.75;5009621;28;20045;-43
2023/08/03 09:35:00;;;;;;;5.40;1.30;;;;;;;22.24;74.67;99896.97;5011424;28;20038;-47
2023/08/03 09:37:36;;;;;;;5.53;1.17;;;;;;;22.95;71.20;99899.53;5011900;28;20038;-46
2023/08/03 09:40:05;;;;;;;5.47;1.35;;;;;;;22.48;72.27;99910.78;5011613;28;20095;-44
2023/08/03 09:42:34;;;;;;;7.75;1.45;;;;;;;23.06;71.47;99908.66;5010799;28;20030;-47
2023/08/03 09:45:03;;;;;;;6.45;1.33;;;;;;;22.66;71.25;99920.47;5011368;28;20033;-42
2023/08/03 09:47:30;;;;;;;10.13;1.30;;;;;;;21.85;73.42;99925.41;5010042;28;20129;-49
2023/08/03 09:49:56;;;;;;;5.15;1.30;;;;;;;22.40;73.14;99930.69;5011476;28;20030;-43
2023/08/03 09:52:25;;;;;;;6.90;1.35;;;;;;;22.76;71.64;99935.97;5010828;28;20057;-47
2023/08/03 09:55:13;;;;;;;3.78;1.33;;;;;;;23.08;69.37;99947.59;5010680;28;20584;-46
2023/08/03 09:57:41;;;;;;;5.25;1.40;;;;;;;22.99;69.09;99960.41;5011019;28;20132;-44
2023/08/03 10:00:07;;;;;;;4.22;1.50;;;;;;;23.22;69.75;99963.69;5011085;28;20038;-48
2023/08/03 10:02:43;;;;;;;9.30;1.95;;;;;;;22.77;71.37;99980.22;5010460;28;20034;-45
2023/08/03 10:05:13;;;;;;;8.07;2.20;;;;;;;21.78;74.64;99972.59;5011261;28;20489;-42
2023/08/03 10:07:49;;;;;;;6.90;1.70;;;;;;;22.06;72.80;99993.44;5010833;28;20393;-43
2023/08/03 10:10:17;;;;;;;7.15;1.60;;;;;;;21.87;75.09;99995.19;5011511;28;20033;-43
2023/08/03 10:12:46;;;;;;;5.88;1.35;;;;;;;21.13;78.06;100017.09;5010140;28;20033;-44
2023/08/03 10:15:14;;;;;;;6.90;1.50;;;;;;;21.53;77.76;100017.09;5011222;28;20030;-48
2023/08/03 10:17:41;;;;;;;5.05;1.40;;;;;;;22.09;76.71;100022.47;5010678;28;20069;-49
2023/08/03 10:20:09;;;;;;;7.15;1.58;;;;;;;21.01;79.47;100037.06;5011750;28;20026;-49
2023/08/03 10:22:35;;;;;;;4.15;1.17;;;;;;;21.31;78.82;100045.50;5011706;28;20463;-44
2023/08/03 10:25:19;;;;;;;4.50;1.20;;;;;;;21.37;79.43;100054.03;5012693;28;20033;-44
2023/08/03 10:28:10;;;;;;;7.32;1.38;;;;;;;20.89;80.95;100056.13;5011536;28;20042;-46
2023/08/03 10:31:10;;;;;;;4.90;1.10;;;;;;;20.86;81.40;100067.69;5011616;28;20041;-44
2023/08/03 10:33:51;;;;;;;5.03;1.55;;;;;;;21.01;80.19;100080.31;5010798;28;20312;-43
2023/08/03 10:36:33;;;;;;;6.00;1.63;;;;;;;20.76;80.84;100079.59;5011944;28;20037;-45
2023/08/03 10:38:58;;;;;;;11.15;1.80;;;;;;;20.06;83.03;100095.59;5009588;28;20103;-48
2023/08/03 10:41:26;;;;;;;7.65;1.70;;;;;;;20.40;81.81;100104.91;5010489;28;20038;-45
2023/08/03 10:44:06;;;;;;;6.10;1.60;;;;;;;20.31;81.82;100099.94;5008866;28;20038;-46
2023/08/03 10:46:37;;;;;;;5.35;1.60;;;;;;;20.69;81.26;100109.91;5009805;28;20033;-43
2023/08/03 10:49:22;;;;;;;7.15;1.70;;;;;;;20.09;83.45;100118.41;5010146;28;20404;-45
2023/08/03 10:51:53;;;;;;;8.32;2.00;;;;;;;20.38;82.61;100112.91;5009202;28;20037;-45
2023/08/03 10:54:36;;;;;;;9.32;2.10;;;;;;;20.39;81.96;100119.06;5010209;28;20038;-44
2023/08/03 10:57:08;;;;;;;7.10;2.05;;;;;;;20.54;81.03;100132.59;5009861;28;20109;-45
2023/08/03 10:59:40;;;;;;;8.90;2.00;;;;;;;20.86;80.15;100141.03;5009778;28;20038;-45
2023/08/03 11:02:21;;;;;;;14.15;2.63;;;;;;;20.32;82.58;100142.25;5009590;28;20113;-43
2023/08/03 11:04:52;;;;;;;12.05;2.67;;;;;;;20.37;82.48;100145.59;5009267;28;20065;-44
2023/08/03 11:07:38;;;;;;;10.45;2.35;;;;;;;21.04;80.68;100154.38;5010195;28;20054;-47
2023/08/03 11:10:12;;;;;;;15.10;3.15;;;;;;;20.87;81.80;100159.50;5009771;28;20044;-43
2023/08/03 11:12:39;;;;;;;11.38;2.70;;;;;;;20.64;82.45;100175.44;5009057;28;20088;-44
2023/08/03 11:15:06;;;;;;;12.05;2.75;;;;;;;20.87;82.05;100167.44;5010004;28;20412;-44
2023/08/03 11:17:36;;;;;;;14.90;3.15;;;;;;;20.58;82.60;100181.84;5009732;28;20030;-45
2023/08/03 11:20:07;;;;;;;12.98;3.13;;;;;;;20.19;83.29;100184.16;5010706;28;20404;-44
2023/08/03 11:22:33;;;;;;;15.63;3.08;;;;;;;20.09;83.78;100190.72;5009458;28;20030;-47
2023/08/03 11:25:01;;;;;;;15.40;2.95;;;;;;;20.47;81.85;100193.78;5010647;28;20038;-46
2023/08/03 11:27:26;;;;;;;11.43;3.05;;;;;;;20.99;81.34;100196.09;5011472;28;20081;-46